createdAt,value
2022-10-14T00:00:50.712Z,12.4
2022-10-14T00:02:50.694Z,12.4
2022-10-14T00:04:50.284Z,12.4
2022-10-14T00:06:50.468Z,12.4
2022-10-14T00:08:50.457Z,12.4
2022-10-14T00:10:51.025Z,12.4
2022-10-14T00:12:50.171Z,12.4
2022-10-14T00:14:50.175Z,12.3
2022-10-14T00:16:50.660Z,12.3
2022-10-14T00:18:50.736Z,12.3
2022-10-14T00:20:50.605Z,12.3
2022-10-14T00:22:50.737Z,12.3
2022-10-14T00:24:50.787Z,12.2
2022-10-14T00:26:50.139Z,12.2
2022-10-14T00:28:50.525Z,12.2
2022-10-14T00:30:50.438Z,12.2
2022-10-14T00:32:50.935Z,12.2
2022-10-14T00:34:50.321Z,12.2
2022-10-14T00:36:50.470Z,12.2
2022-10-14T00:38:50.501Z,12.2
2022-10-14T00:40:50.539Z,12.3
2022-10-14T00:42:50.499Z,12.2
2022-10-14T00:44:50.461Z,12.3
2022-10-14T00:46:50.701Z,12.3
2022-10-14T00:48:50.690Z,12.3
2022-10-14T00:50:50.687Z,12.3
2022-10-14T00:52:50.520Z,12.4
2022-10-14T00:54:50.395Z,12.3
2022-10-14T00:56:50.658Z,12.3
2022-10-14T00:58:50.781Z,12.3
2022-10-14T01:00:51.015Z,12.3
2022-10-14T01:02:50.155Z,12.3
2022-10-14T01:04:50.575Z,12.3
2022-10-14T01:06:50.079Z,12.3
2022-10-14T01:08:50.748Z,12.3
2022-10-14T01:10:50.847Z,12.3
2022-10-14T01:12:50.743Z,12.3
2022-10-14T01:14:50.720Z,12.3
2022-10-14T01:16:50.925Z,12.3
2022-10-14T01:18:50.698Z,12.4
2022-10-14T01:20:50.772Z,12.4
2022-10-14T01:22:50.702Z,12.4
2022-10-14T01:24:50.557Z,12.4
2022-10-14T01:26:50.845Z,12.4
2022-10-14T01:28:51.119Z,12.4
2022-10-14T01:30:50.209Z,12.4
2022-10-14T01:32:50.108Z,12.4
2022-10-14T01:34:50.667Z,12.4
2022-10-14T01:36:50.085Z,12.4
2022-10-14T01:38:50.892Z,12.4
2022-10-14T01:40:49.985Z,12.4
2022-10-14T01:42:49.990Z,12.4
2022-10-14T01:44:50.019Z,12.4
2022-10-14T01:46:50.182Z,12.4
2022-10-14T01:48:50.335Z,12.4
2022-10-14T01:50:50.265Z,12.4
2022-10-14T01:52:50.224Z,12.4
2022-10-14T01:54:50.111Z,12.4
2022-10-14T01:56:50.531Z,12.4
2022-10-14T01:58:50.217Z,12.4
2022-10-14T02:00:50.162Z,12.4
2022-10-14T02:02:50.026Z,12.4
2022-10-14T02:04:50.460Z,12.4
2022-10-14T02:06:50.725Z,12.4
2022-10-14T02:08:50.076Z,12.4
2022-10-14T02:10:50.747Z,12.4
2022-10-14T02:12:50.648Z,12.4
2022-10-14T02:14:50.331Z,12.4
2022-10-14T02:16:50.684Z,12.4
2022-10-14T02:18:50.428Z,12.4
2022-10-14T02:20:50.218Z,12.4
2022-10-14T02:22:50.217Z,12.4
2022-10-14T02:24:50.140Z,12.4
2022-10-14T02:26:50.337Z,12.4
2022-10-14T02:28:50.966Z,12.3
2022-10-14T02:30:50.117Z,12.3
2022-10-14T02:32:50.866Z,12.3
2022-10-14T02:34:50.405Z,12.3
2022-10-14T02:36:50.920Z,12.3
2022-10-14T02:38:50.845Z,12.3
2022-10-14T02:40:50.822Z,12.2
2022-10-14T02:42:50.743Z,12.2
2022-10-14T02:44:50.734Z,12.2
2022-10-14T02:46:49.965Z,12.2
2022-10-14T02:48:49.917Z,12.2
2022-10-14T02:50:50.728Z,12.2
2022-10-14T02:52:50.626Z,12.2
2022-10-14T02:54:50.445Z,12.2
2022-10-14T02:56:50.780Z,12.2
2022-10-14T02:58:50.728Z,12.2
2022-10-14T03:00:50.609Z,12.2
2022-10-14T03:02:50.330Z,12.1
2022-10-14T03:04:49.965Z,12.1
2022-10-14T03:06:50.279Z,12.0
2022-10-14T03:08:50.214Z,12.0
2022-10-14T03:10:49.999Z,12.0
2022-10-14T03:12:50.770Z,12.0
2022-10-14T03:14:50.725Z,12.0
2022-10-14T03:16:49.939Z,12.0
2022-10-14T03:18:50.894Z,12.0
2022-10-14T03:20:50.858Z,12.0
2022-10-14T03:22:50.861Z,12.0
2022-10-14T03:24:50.738Z,11.9
2022-10-14T03:26:50.002Z,11.9
2022-10-14T03:28:51.321Z,11.9
2022-10-14T03:30:50.274Z,11.9
2022-10-14T03:32:50.393Z,11.9
2022-10-14T03:34:50.737Z,11.9
2022-10-14T03:36:50.930Z,11.9
2022-10-14T03:38:50.536Z,11.9
2022-10-14T03:40:50.341Z,11.8
2022-10-14T03:42:50.069Z,11.9
2022-10-14T03:44:50.165Z,11.8
2022-10-14T03:46:50.276Z,11.8
2022-10-14T03:48:50.443Z,11.8
2022-10-14T03:50:50.343Z,11.8
2022-10-14T03:52:56.168Z,11.8
2022-10-14T03:54:50.025Z,11.8
2022-10-14T03:56:50.478Z,11.8
2022-10-14T03:58:50.221Z,11.8
2022-10-14T04:00:50.112Z,11.8
2022-10-14T04:02:49.958Z,11.8
2022-10-14T04:04:50.222Z,11.8
2022-10-14T04:06:50.652Z,11.8
2022-10-14T04:08:50.344Z,11.8
2022-10-14T04:10:50.300Z,11.8
2022-10-14T04:12:50.209Z,11.8
2022-10-14T04:14:50.351Z,11.8
2022-10-14T04:16:50.666Z,11.8
2022-10-14T04:18:50.553Z,11.8
2022-10-14T04:20:50.630Z,11.7
2022-10-14T04:22:50.518Z,11.7
2022-10-14T04:24:50.401Z,11.7
2022-10-14T04:26:50.840Z,11.7
2022-10-14T04:28:51.187Z,11.6
2022-10-14T04:30:50.259Z,11.6
2022-10-14T04:32:50.343Z,11.6
2022-10-14T04:34:50.693Z,11.6
2022-10-14T04:36:50.886Z,11.6
2022-10-14T04:38:50.762Z,11.6
2022-10-14T04:40:50.838Z,11.6
2022-10-14T04:42:50.840Z,11.6
2022-10-14T04:44:50.584Z,11.6
2022-10-14T04:46:50.083Z,11.6
2022-10-14T04:48:49.919Z,11.6
2022-10-14T04:50:49.919Z,11.6
2022-10-14T04:52:49.909Z,11.6
2022-10-14T04:54:50.025Z,11.6
2022-10-14T04:56:50.325Z,11.6
2022-10-14T04:58:50.282Z,11.5
2022-10-14T05:00:50.102Z,11.5
2022-10-14T05:02:50.096Z,11.5
2022-10-14T05:04:50.393Z,11.5
2022-10-14T05:06:50.766Z,11.4
2022-10-14T05:08:50.648Z,11.4
2022-10-14T05:10:50.573Z,11.4
2022-10-14T05:12:50.411Z,11.4
2022-10-14T05:14:50.381Z,11.4
2022-10-14T05:16:50.769Z,11.4
2022-10-14T05:18:50.611Z,11.4
2022-10-14T05:20:50.669Z,11.4
2022-10-14T05:22:50.547Z,11.4
2022-10-14T05:24:50.699Z,11.4
2022-10-14T05:26:50.792Z,11.4
2022-10-14T05:28:51.150Z,11.5
2022-10-14T05:30:50.023Z,11.5
2022-10-14T05:32:50.048Z,11.5
2022-10-14T05:34:50.546Z,11.6
2022-10-14T05:36:50.084Z,11.6
2022-10-14T05:38:49.913Z,11.6
2022-10-14T05:40:50.017Z,11.6
2022-10-14T05:42:50.803Z,11.6
2022-10-14T05:44:50.805Z,11.7
2022-10-14T05:46:50.082Z,11.7
2022-10-14T05:48:49.950Z,11.7
2022-10-14T05:50:50.866Z,11.7
2022-10-14T05:52:50.689Z,11.7
2022-10-14T05:54:50.693Z,11.8
2022-10-14T05:56:50.099Z,11.8
2022-10-14T05:58:50.160Z,11.8
2022-10-14T06:00:50.062Z,11.8
2022-10-14T06:02:50.239Z,11.8
2022-10-14T06:04:49.932Z,11.8
2022-10-14T06:06:50.256Z,11.9
2022-10-14T06:08:50.078Z,11.9
2022-10-14T06:10:49.989Z,11.9
2022-10-14T06:12:50.858Z,12.0
2022-10-14T06:14:50.773Z,12.0
2022-10-14T06:16:50.008Z,12.0
2022-10-14T06:18:55.082Z,12.0
2022-10-14T06:20:49.963Z,12.0
2022-10-14T06:22:50.010Z,12.1
2022-10-14T06:24:50.783Z,12.1
2022-10-14T06:26:50.022Z,12.2
2022-10-14T06:28:51.133Z,12.2
2022-10-14T06:30:50.296Z,12.2
2022-10-14T06:32:50.121Z,12.2
2022-10-14T06:34:50.454Z,12.2
2022-10-14T06:36:50.642Z,12.2
2022-10-14T06:38:50.514Z,12.3
2022-10-14T06:40:50.321Z,12.3
2022-10-14T06:42:50.393Z,12.3
2022-10-14T06:44:50.211Z,12.3
2022-10-14T06:46:50.489Z,12.4
2022-10-14T06:48:51.016Z,12.4
2022-10-14T06:50:50.046Z,12.4
2022-10-14T06:52:50.171Z,12.4
2022-10-14T06:54:50.185Z,12.4
2022-10-14T06:56:50.347Z,12.4
2022-10-14T06:58:50.092Z,12.4
2022-10-14T07:00:50.520Z,12.4
2022-10-14T07:02:51.373Z,12.4
2022-10-14T07:04:50.821Z,12.5
2022-10-14T07:06:49.982Z,12.5
2022-10-14T07:08:49.959Z,12.5
2022-10-14T07:10:50.836Z,12.5
2022-10-14T07:12:50.736Z,12.5
2022-10-14T07:14:50.464Z,12.5
2022-10-14T07:18:50.718Z,12.5
2022-10-14T07:20:50.704Z,12.6
2022-10-14T07:22:50.545Z,12.6
2022-10-14T07:24:50.583Z,12.6
2022-10-14T07:26:50.122Z,12.6
2022-10-14T07:28:50.432Z,12.6
2022-10-14T07:30:50.657Z,12.6
2022-10-14T07:32:50.580Z,12.6
2022-10-14T07:34:50.864Z,12.6
2022-10-14T07:36:49.984Z,12.7
2022-10-14T07:38:50.784Z,12.8
2022-10-14T07:40:50.536Z,12.8
2022-10-14T07:42:50.623Z,12.8
2022-10-14T07:44:50.448Z,12.8
2022-10-14T07:46:50.732Z,12.8
2022-10-14T07:48:58.475Z,12.9
2022-10-14T07:50:50.537Z,13.0
2022-10-14T07:52:50.343Z,13.0
2022-10-14T07:54:50.398Z,13.0
2022-10-14T07:56:50.614Z,13.0
2022-10-14T07:58:50.730Z,13.1
2022-10-14T08:00:50.551Z,13.2
2022-10-14T08:02:50.529Z,13.2
2022-10-14T08:04:49.989Z,13.2
2022-10-14T08:06:50.326Z,13.3
2022-10-14T08:08:50.242Z,13.4
2022-10-14T08:10:50.307Z,13.4
2022-10-14T08:12:50.178Z,13.5
2022-10-14T08:14:50.078Z,13.5
2022-10-14T08:16:50.788Z,13.6
2022-10-14T08:18:50.053Z,13.7
2022-10-14T08:20:49.957Z,13.7
2022-10-14T08:22:50.867Z,13.8
2022-10-14T08:24:50.872Z,13.8
2022-10-14T08:26:50.228Z,13.9
2022-10-14T08:28:50.337Z,14.0
2022-10-14T08:30:50.367Z,14.1
2022-10-14T08:32:50.225Z,14.1
2022-10-14T08:34:50.739Z,14.2
2022-10-14T08:36:50.007Z,14.3
2022-10-14T08:38:49.980Z,14.4
2022-10-14T08:40:56.285Z,14.4
2022-10-14T08:42:50.134Z,14.4
2022-10-14T08:44:50.295Z,14.5
2022-10-14T08:46:52.934Z,14.6
2022-10-14T08:48:50.937Z,14.6
2022-10-14T08:50:50.819Z,14.6
2022-10-14T08:52:50.884Z,14.7
2022-10-14T08:54:50.673Z,14.8
2022-10-14T08:56:50.020Z,14.9
2022-10-14T08:58:50.768Z,15.0
2022-10-14T09:00:50.780Z,15.0
2022-10-14T09:02:50.665Z,15.0
2022-10-14T09:04:50.205Z,15.1
2022-10-14T09:06:50.353Z,15.2
2022-10-14T09:08:50.266Z,15.3
2022-10-14T09:10:50.173Z,15.3
2022-10-14T09:12:50.146Z,15.4
2022-10-14T09:14:50.159Z,15.4
2022-10-14T09:16:54.631Z,15.4
2022-10-14T09:18:55.380Z,15.4
2022-10-14T09:20:50.336Z,15.4
2022-10-14T09:24:50.056Z,15.6
2022-10-14T09:26:50.774Z,15.7
2022-10-14T09:28:51.069Z,15.7
2022-10-14T09:30:50.268Z,15.7
2022-10-14T09:32:50.188Z,15.8
2022-10-14T09:34:50.547Z,15.8
2022-10-14T09:36:50.215Z,15.8
2022-10-14T09:38:50.165Z,15.8
2022-10-14T09:40:50.179Z,15.9
2022-10-14T09:42:50.085Z,16.0
2022-10-14T09:44:50.841Z,16.0
2022-10-14T09:46:50.091Z,16.1
2022-10-14T09:48:50.127Z,16.2
2022-10-14T09:50:50.177Z,16.2
2022-10-14T09:52:50.092Z,16.3
2022-10-14T09:56:50.532Z,16.4
2022-10-14T09:58:50.522Z,16.4
2022-10-14T10:00:50.436Z,16.5
2022-10-14T10:02:50.421Z,16.5
2022-10-14T10:04:50.837Z,16.6
2022-10-14T10:06:50.222Z,16.6
2022-10-14T10:08:50.190Z,16.6
2022-10-14T10:10:50.187Z,16.7
2022-10-14T10:12:50.130Z,16.7
2022-10-14T10:14:50.378Z,16.7
2022-10-14T10:18:50.725Z,16.8
2022-10-14T10:20:50.783Z,16.9
2022-10-14T10:22:50.649Z,17.0
2022-10-14T10:24:50.360Z,17.0
2022-10-14T10:26:50.719Z,17.0
2022-10-14T10:28:50.983Z,17.1
2022-10-14T10:30:50.119Z,17.2
2022-10-14T10:32:49.965Z,17.2
2022-10-14T10:34:50.322Z,17.2
2022-10-14T10:36:50.481Z,17.2
2022-10-14T10:38:50.531Z,17.3
2022-10-14T10:40:50.332Z,17.3
2022-10-14T10:42:50.224Z,17.3
2022-10-14T10:44:50.499Z,17.3
2022-10-14T10:46:50.671Z,17.3
2022-10-14T10:48:50.800Z,17.4
2022-10-14T10:50:50.857Z,17.4
2022-10-14T10:52:50.946Z,17.4
2022-10-14T10:54:51.059Z,17.4
2022-10-14T10:56:50.606Z,17.4
2022-10-14T10:58:50.889Z,17.4
2022-10-14T11:00:51.003Z,17.5
2022-10-14T11:02:50.239Z,17.5
2022-10-14T11:04:51.083Z,17.5
2022-10-14T11:06:50.460Z,17.5
2022-10-14T11:08:50.511Z,17.6
2022-10-14T11:10:50.643Z,17.6
2022-10-14T11:12:50.785Z,17.6
2022-10-14T11:14:50.967Z,17.6
2022-10-14T11:16:50.522Z,17.7
2022-10-14T11:18:50.659Z,17.7
2022-10-14T11:20:50.723Z,17.7
2022-10-14T11:22:51.023Z,17.7
2022-10-14T11:24:51.031Z,17.8
2022-10-14T11:26:50.499Z,17.7
2022-10-14T11:28:50.607Z,17.8
2022-10-14T11:30:50.788Z,17.8
2022-10-14T11:32:50.831Z,17.8
2022-10-14T11:34:50.350Z,17.7
2022-10-14T11:36:50.721Z,17.7
2022-10-14T11:38:50.745Z,17.7
2022-10-14T11:40:50.745Z,17.7
2022-10-14T11:42:50.638Z,17.7
2022-10-14T11:44:50.621Z,17.7
2022-10-14T11:46:50.805Z,17.8
2022-10-14T11:48:50.015Z,17.8
2022-10-14T11:50:50.904Z,17.8
2022-10-14T11:52:50.826Z,17.8
2022-10-14T11:54:50.800Z,17.8
2022-10-14T11:56:50.151Z,17.8
2022-10-14T11:58:50.113Z,17.8
2022-10-14T12:00:50.767Z,17.8
2022-10-14T12:02:51.108Z,17.8
2022-10-14T12:04:50.619Z,17.8
2022-10-14T12:06:49.995Z,17.9
2022-10-14T12:08:50.863Z,17.9
2022-10-14T12:10:50.767Z,17.9
2022-10-14T12:12:50.687Z,17.9
2022-10-14T12:14:50.760Z,17.9
2022-10-14T12:16:49.937Z,18.0
2022-10-14T12:18:50.914Z,18.0
2022-10-14T12:20:50.770Z,18.0
2022-10-14T12:22:49.989Z,18.0
2022-10-14T12:24:50.934Z,18.0
2022-10-14T12:26:50.243Z,18.1
2022-10-14T12:28:56.826Z,18.1
2022-10-14T12:30:50.053Z,18.1
2022-10-14T12:32:50.075Z,18.2
2022-10-14T12:34:50.455Z,18.2
2022-10-14T12:36:50.940Z,18.2
2022-10-14T12:38:50.906Z,18.2
2022-10-14T12:40:50.802Z,18.2
2022-10-14T12:42:50.681Z,18.2
2022-10-14T12:44:50.667Z,18.2
2022-10-14T12:46:50.162Z,18.2
2022-10-14T12:48:50.191Z,18.2
2022-10-14T12:50:49.961Z,18.2
2022-10-14T12:52:50.019Z,18.2
2022-10-14T12:54:50.130Z,18.2
2022-10-14T12:56:50.299Z,18.2
2022-10-14T12:58:50.110Z,18.2
2022-10-14T13:00:50.153Z,18.2
2022-10-14T13:02:49.923Z,18.2
2022-10-14T13:04:50.385Z,18.2
2022-10-14T13:06:50.553Z,18.2
2022-10-14T13:08:50.694Z,18.2
2022-10-14T13:10:50.555Z,18.2
2022-10-14T13:12:50.453Z,18.2
2022-10-14T13:14:50.519Z,18.2
2022-10-14T13:16:49.909Z,18.2
2022-10-14T13:18:50.797Z,18.2
2022-10-14T13:20:50.746Z,18.2
2022-10-14T13:22:50.605Z,18.2
2022-10-14T13:24:50.481Z,18.1
2022-10-14T13:26:50.887Z,18.1
2022-10-14T13:28:50.971Z,18.1
2022-10-14T13:30:50.106Z,18.0
2022-10-14T13:32:50.974Z,18.1
2022-10-14T13:34:50.425Z,18.0
2022-10-14T13:36:50.571Z,18.0
2022-10-14T13:38:50.591Z,18.0
2022-10-14T13:40:50.446Z,18.0
2022-10-14T13:42:50.639Z,18.0
2022-10-14T13:44:50.652Z,18.0
2022-10-14T13:46:50.043Z,18.0
2022-10-14T13:48:50.186Z,17.9
2022-10-14T13:50:49.948Z,17.9
2022-10-14T13:52:50.863Z,17.9
2022-10-14T13:54:50.733Z,17.8
2022-10-14T13:57:53.893Z,17.8
2022-10-14T13:58:50.894Z,17.8
2022-10-14T14:00:50.870Z,17.8
2022-10-14T14:03:03.522Z,17.8
2022-10-14T14:04:50.410Z,17.8
2022-10-14T14:07:38.136Z,17.8
2022-10-14T14:08:51.600Z,17.8
2022-10-14T14:11:18.842Z,17.9
2022-10-14T14:12:50.420Z,17.9
2022-10-14T14:14:50.403Z,17.9
2022-10-14T14:16:50.816Z,17.9
2022-10-14T14:19:10.620Z,18.0
2022-10-14T14:20:50.547Z,18.0
2022-10-14T14:22:50.508Z,18.0
2022-10-14T14:24:50.497Z,18.0
2022-10-14T14:26:50.782Z,17.9
2022-10-14T14:28:50.725Z,17.9
2022-10-14T14:30:55.684Z,17.9
2022-10-14T14:32:50.468Z,17.8
2022-10-14T14:34:51.196Z,17.9
2022-10-14T14:37:43.725Z,17.8
2022-10-14T14:38:50.823Z,17.8
2022-10-14T14:40:50.727Z,17.8
2022-10-14T14:42:50.805Z,17.8
2022-10-14T14:44:50.708Z,17.7
2022-10-14T14:46:50.088Z,17.7
2022-10-14T14:48:54.801Z,17.6
2022-10-14T14:50:50.755Z,17.6
2022-10-14T14:52:50.740Z,17.6
2022-10-14T14:54:50.816Z,17.6
2022-10-14T14:56:50.129Z,17.5
2022-10-14T14:58:50.036Z,17.5
2022-10-14T15:00:50.914Z,17.4
2022-10-14T15:02:49.934Z,17.4
2022-10-14T15:04:50.558Z,17.4
2022-10-14T15:06:52.270Z,17.3
2022-10-14T15:08:50.161Z,17.3
2022-10-14T15:10:50.145Z,17.2
2022-10-14T15:12:50.138Z,17.2
2022-10-14T15:14:49.997Z,17.1
2022-10-14T15:16:50.419Z,17.1
2022-10-14T15:18:50.242Z,17.1
2022-10-14T15:20:50.140Z,17.0
2022-10-14T15:22:49.976Z,17.0
2022-10-14T15:24:50.054Z,17.0
2022-10-14T15:26:50.641Z,17.0
2022-10-14T15:28:50.974Z,17.0
2022-10-14T15:30:50.145Z,17.0
2022-10-14T15:32:50.097Z,16.9
2022-10-14T15:34:50.418Z,16.9
2022-10-14T15:36:49.977Z,16.9
2022-10-14T15:38:50.898Z,16.8
2022-10-14T15:40:49.970Z,16.8
2022-10-14T15:42:49.916Z,16.8
2022-10-14T15:44:50.807Z,16.8
2022-10-14T15:46:50.368Z,16.8
2022-10-14T15:48:50.232Z,16.8
2022-10-14T15:50:50.318Z,16.7
2022-10-14T15:52:50.027Z,16.7
2022-10-14T15:54:50.154Z,16.7
2022-10-14T15:56:50.776Z,16.7
2022-10-14T15:58:50.820Z,16.6
2022-10-14T16:00:50.628Z,16.6
2022-10-14T16:02:50.559Z,16.6
2022-10-14T16:05:20.679Z,16.6
2022-10-14T16:06:50.550Z,16.6
2022-10-14T16:08:50.554Z,16.6
2022-10-14T16:10:50.596Z,16.6
2022-10-14T16:12:50.452Z,16.6
2022-10-14T16:14:50.378Z,16.6
2022-10-14T16:16:50.749Z,16.6
2022-10-14T16:18:50.591Z,16.5
2022-10-14T16:20:50.520Z,16.5
2022-10-14T16:22:50.521Z,16.5
2022-10-14T16:24:50.439Z,16.5
2022-10-14T16:26:50.796Z,16.5
2022-10-14T16:28:50.977Z,16.5
2022-10-14T16:30:49.997Z,16.4
2022-10-14T16:32:50.037Z,16.4
2022-10-14T16:34:50.314Z,16.4
2022-10-14T16:36:50.800Z,16.4
2022-10-14T16:38:50.767Z,16.4
2022-10-14T16:40:50.776Z,16.4
2022-10-14T16:42:50.761Z,16.4
2022-10-14T16:44:50.883Z,16.4
2022-10-14T16:46:50.138Z,16.3
2022-10-14T16:48:50.316Z,16.3
2022-10-14T16:50:50.210Z,16.3
2022-10-14T16:52:50.157Z,16.3
2022-10-14T16:54:49.932Z,16.3
2022-10-14T16:56:50.231Z,16.3
2022-10-14T16:58:50.892Z,16.2
2022-10-14T17:00:50.833Z,16.2
2022-10-14T17:02:50.513Z,16.2
2022-10-14T17:04:50.812Z,16.2
2022-10-14T17:06:49.992Z,16.2
2022-10-14T17:08:50.094Z,16.2
2022-10-14T17:10:50.798Z,16.2
2022-10-14T17:12:50.723Z,16.2
2022-10-14T17:14:50.744Z,16.2
2022-10-14T17:16:50.113Z,16.2
2022-10-14T17:18:50.399Z,16.2
2022-10-14T17:20:50.338Z,16.2
2022-10-14T17:22:50.191Z,16.2
2022-10-14T17:24:50.065Z,16.1
2022-10-14T17:26:50.482Z,16.1
2022-10-14T17:28:50.523Z,16.0
2022-10-14T17:30:50.661Z,16.0
2022-10-14T17:32:50.579Z,15.9
2022-10-14T17:34:54.002Z,15.8
2022-10-14T17:36:50.231Z,15.7
2022-10-14T17:38:50.187Z,15.6
2022-10-14T17:40:49.963Z,15.6
2022-10-14T17:42:50.834Z,15.5
2022-10-14T17:44:50.814Z,15.4
2022-10-14T17:46:50.225Z,15.4
2022-10-14T17:48:50.030Z,15.3
2022-10-14T17:50:49.938Z,15.3
2022-10-14T17:52:50.716Z,15.2
2022-10-14T17:54:50.527Z,15.2
2022-10-14T17:56:50.879Z,15.1
2022-10-14T17:58:50.697Z,15.1
2022-10-14T18:00:50.646Z,15.0
2022-10-14T18:02:50.496Z,15.0
2022-10-14T18:04:50.768Z,15.0
2022-10-14T18:06:50.122Z,15.0
2022-10-14T18:08:50.110Z,15.0
2022-10-14T18:10:49.955Z,14.9
2022-10-14T18:12:50.069Z,14.8
2022-10-14T18:14:49.969Z,14.8
2022-10-14T18:16:50.380Z,14.8
2022-10-14T18:18:50.226Z,14.8
2022-10-14T18:20:50.040Z,14.8
2022-10-14T18:22:50.005Z,14.7
2022-10-14T18:24:50.017Z,14.7
2022-10-14T18:26:50.423Z,14.7
2022-10-14T18:28:50.927Z,14.7
2022-10-14T18:30:49.984Z,14.7
2022-10-14T18:32:50.074Z,14.6
2022-10-14T18:34:50.374Z,14.6
2022-10-14T18:36:50.730Z,14.6
2022-10-14T18:38:50.613Z,14.6
2022-10-14T18:40:50.826Z,14.6
2022-10-14T18:42:50.783Z,14.7
2022-10-14T18:44:50.769Z,14.7
2022-10-14T18:46:50.004Z,14.6
2022-10-14T18:48:50.876Z,14.6
2022-10-14T18:50:50.670Z,14.6
2022-10-14T18:52:50.482Z,14.6
2022-10-14T18:54:50.481Z,14.6
2022-10-14T18:56:50.829Z,14.6
2022-10-14T18:58:51.129Z,14.6
2022-10-14T19:00:50.195Z,14.6
2022-10-14T19:02:50.206Z,14.6
2022-10-14T19:04:50.539Z,14.6
2022-10-14T19:06:50.742Z,14.5
2022-10-14T19:08:50.585Z,14.5
2022-10-14T19:10:50.578Z,14.5
2022-10-14T19:12:50.414Z,14.5
2022-10-14T19:14:50.543Z,14.5
2022-10-14T19:16:50.211Z,14.5
2022-10-14T19:18:50.345Z,14.4
2022-10-14T19:20:50.162Z,14.4
2022-10-14T19:22:57.173Z,14.4
2022-10-14T19:24:50.071Z,14.4
2022-10-14T19:26:50.745Z,14.4
2022-10-14T19:28:50.963Z,14.4
2022-10-14T19:30:50.243Z,14.4
2022-10-14T19:32:50.048Z,14.4
2022-10-14T19:34:50.562Z,14.4
2022-10-14T19:36:50.921Z,14.4
2022-10-14T19:38:50.903Z,14.4
2022-10-14T19:40:50.690Z,14.3
2022-10-14T19:42:50.648Z,14.3
2022-10-14T19:44:50.642Z,14.3
2022-10-14T19:46:50.901Z,14.3
2022-10-14T19:48:49.927Z,14.3
2022-10-14T19:50:49.931Z,14.3
2022-10-14T19:52:50.068Z,14.3
2022-10-14T19:54:50.871Z,14.3
2022-10-14T19:56:50.148Z,14.2
2022-10-14T19:58:50.015Z,14.2
2022-10-14T20:00:50.159Z,14.2
2022-10-14T20:02:50.036Z,14.2
2022-10-14T20:04:50.628Z,14.2
2022-10-14T20:06:50.713Z,14.2
2022-10-14T20:08:50.717Z,14.2
2022-10-14T20:10:50.430Z,14.2
2022-10-14T20:12:50.437Z,14.2
2022-10-14T20:14:50.402Z,14.2
2022-10-14T20:16:56.303Z,14.2
2022-10-14T20:18:50.285Z,14.2
2022-10-14T20:20:50.106Z,14.2
2022-10-14T20:22:50.122Z,14.2
2022-10-14T20:24:50.879Z,14.2
2022-10-14T20:26:50.299Z,14.2
2022-10-14T20:28:50.865Z,14.2
2022-10-14T20:30:50.087Z,14.2
2022-10-14T20:32:50.018Z,14.2
2022-10-14T20:34:50.235Z,14.2
2022-10-14T20:36:50.607Z,14.2
2022-10-14T20:38:50.618Z,14.2
2022-10-14T20:40:50.400Z,14.2
2022-10-14T20:42:50.351Z,14.1
2022-10-14T20:44:50.201Z,14.2
2022-10-14T20:46:50.362Z,14.2
2022-10-14T20:48:50.143Z,14.2
2022-10-14T20:50:50.050Z,14.2
2022-10-14T20:52:50.832Z,14.2
2022-10-14T20:54:50.634Z,14.2
2022-10-14T20:56:50.897Z,14.2
2022-10-14T20:58:50.794Z,14.2
2022-10-14T21:00:50.646Z,14.2
2022-10-14T21:02:50.472Z,14.2
2022-10-14T21:04:50.010Z,14.2
2022-10-14T21:06:50.381Z,14.2
2022-10-14T21:08:50.423Z,14.2
2022-10-14T21:10:50.363Z,14.2
2022-10-14T21:12:50.441Z,14.2
2022-10-14T21:14:50.255Z,14.2
2022-10-14T21:16:50.716Z,14.2
2022-10-14T21:18:58.465Z,14.2
2022-10-14T21:20:50.637Z,14.2
2022-10-14T21:22:50.449Z,14.1
2022-10-14T21:24:50.457Z,14.1
2022-10-14T21:26:50.832Z,14.1
2022-10-14T21:28:50.975Z,14.1
2022-10-14T21:30:49.957Z,14.1
2022-10-14T21:32:50.841Z,14.1
2022-10-14T21:34:50.205Z,14.1
2022-10-14T21:36:50.658Z,14.2
2022-10-14T21:38:50.759Z,14.2
2022-10-14T21:40:50.556Z,14.1
2022-10-14T21:42:50.639Z,14.1
2022-10-14T21:44:50.402Z,14.1
2022-10-14T21:46:50.775Z,14.1
2022-10-14T21:48:50.503Z,14.1
2022-10-14T21:50:50.701Z,14.1
2022-10-14T21:52:50.709Z,14.1
2022-10-14T21:54:50.750Z,14.1
2022-10-14T21:56:50.329Z,14.1
2022-10-14T21:58:50.307Z,14.1
2022-10-14T22:00:50.529Z,14.1
2022-10-14T22:02:50.478Z,14.1
2022-10-14T22:04:50.801Z,14.1
2022-10-14T22:06:50.137Z,14.1
2022-10-14T22:08:50.247Z,14.1
2022-10-14T22:10:50.043Z,14.1
2022-10-14T22:12:50.001Z,14.1
2022-10-14T22:14:50.169Z,14.1
2022-10-14T22:16:50.495Z,14.1
2022-10-14T22:18:50.357Z,14.1
2022-10-14T22:20:50.210Z,14.1
2022-10-14T22:22:50.161Z,14.1
2022-10-14T22:24:50.181Z,14.1
2022-10-14T22:26:50.516Z,14.1
2022-10-14T22:28:50.727Z,14.1
2022-10-14T22:30:50.842Z,14.1
2022-10-14T22:32:49.967Z,14.1
2022-10-14T22:34:50.625Z,14.1
2022-10-14T22:36:50.786Z,14.1
2022-10-14T22:38:50.811Z,14.1
2022-10-14T22:40:50.797Z,14.1
2022-10-14T22:42:52.032Z,14.1
2022-10-14T22:44:49.970Z,14.1
2022-10-14T22:46:50.332Z,14.1
2022-10-14T22:48:50.319Z,14.0
2022-10-14T22:50:50.196Z,14.0
2022-10-14T22:52:50.242Z,14.0
2022-10-14T22:54:50.146Z,14.0
2022-10-14T22:56:50.481Z,14.0
2022-10-14T22:58:50.271Z,14.0
2022-10-14T23:00:50.180Z,14.0
2022-10-14T23:02:50.186Z,14.0
2022-10-14T23:04:50.910Z,14.0
2022-10-14T23:06:50.650Z,14.0
2022-10-14T23:08:50.774Z,14.0
2022-10-14T23:10:50.555Z,14.0
2022-10-14T23:12:50.503Z,14.0
2022-10-14T23:14:50.523Z,14.0
2022-10-14T23:16:50.109Z,14.0
2022-10-14T23:18:49.951Z,14.0
2022-10-14T23:20:50.609Z,14.0
2022-10-14T23:22:50.527Z,14.0
2022-10-14T23:24:50.357Z,14.0
2022-10-14T23:26:50.729Z,14.0
2022-10-14T23:28:50.953Z,14.0
2022-10-14T23:30:50.024Z,14.0
2022-10-14T23:32:50.911Z,14.0
2022-10-14T23:34:50.407Z,14.0
2022-10-14T23:36:50.839Z,14.0
2022-10-14T23:38:50.840Z,14.0
2022-10-14T23:40:50.764Z,14.0
2022-10-14T23:42:50.701Z,14.0
2022-10-14T23:44:50.615Z,14.0
2022-10-14T23:46:50.754Z,14.0
2022-10-14T23:49:25.368Z,14.0
2022-10-14T23:50:50.296Z,14.0
2022-10-14T23:52:50.435Z,13.9
2022-10-14T23:54:50.644Z,14.0
2022-10-14T23:56:50.212Z,14.0
2022-10-14T23:58:50.281Z,14.0
